sensor_id;sensor_type;location;lat;lon;timestamp;P1;durP1;ratioP1;P2;durP2;ratioP2
57828;SDS011;43657;52.698;6.314;2022-10-14T00:02:01;129.50;;;23.45;;
57828;SDS011;43657;52.698;6.314;2022-10-14T00:04:27;273.02;;;31.42;;
57828;SDS011;43657;52.698;6.314;2022-10-14T00:06:54;234.13;;;29.83;;
57828;SDS011;43657;52.698;6.314;2022-10-14T00:09:19;184.15;;;28.00;;
57828;SDS011;43657;52.698;6.314;2022-10-14T00:11:45;211.65;;;30.08;;
57828;SDS011;43657;52.698;6.314;2022-10-14T00:14:12;216.52;;;29.80;;
57828;SDS011;43657;52.698;6.314;2022-10-14T00:16:40;218.05;;;30.48;;
57828;SDS011;43657;52.698;6.314;2022-10-14T00:19:07;216.35;;;29.77;;
57828;SDS011;43657;52.698;6.314;2022-10-14T00:21:33;276.10;;;33.70;;
57828;SDS011;43657;52.698;6.314;2022-10-14T00:24:00;214.45;;;31.10;;
57828;SDS011;43657;52.698;6.314;2022-10-14T00:26:27;325.65;;;34.50;;
57828;SDS011;43657;52.698;6.314;2022-10-14T00:28:55;302.80;;;34.40;;
57828;SDS011;43657;52.698;6.314;2022-10-14T00:31:22;299.20;;;36.65;;
57828;SDS011;43657;52.698;6.314;2022-10-14T00:33:48;254.73;;;30.25;;
57828;SDS011;43657;52.698;6.314;2022-10-14T00:36:15;266.70;;;33.90;;
57828;SDS011;43657;52.698;6.314;2022-10-14T00:38:42;266.10;;;35.47;;
57828;SDS011;43657;52.698;6.314;2022-10-14T00:41:10;317.52;;;37.63;;
57828;SDS011;43657;52.698;6.314;2022-10-14T00:46:26;283.70;;;38.45;;
57828;SDS011;43657;52.698;6.314;2022-10-14T00:48:54;428.17;;;43.38;;
57828;SDS011;43657;52.698;6.314;2022-10-14T00:51:21;356.75;;;42.58;;
57828;SDS011;43657;52.698;6.314;2022-10-14T00:53:47;301.65;;;38.92;;
57828;SDS011;43657;52.698;6.314;2022-10-14T00:56:13;371.30;;;42.45;;
57828;SDS011;43657;52.698;6.314;2022-10-14T00:58:42;246.88;;;39.13;;
57828;SDS011;43657;52.698;6.314;2022-10-14T01:01:09;276.92;;;39.03;;
57828;SDS011;43657;52.698;6.314;2022-10-14T01:03:34;347.40;;;44.35;;
57828;SDS011;43657;52.698;6.314;2022-10-14T01:06:08;298.67;;;42.05;;
57828;SDS011;43657;52.698;6.314;2022-10-14T01:08:50;251.30;;;37.50;;
57828;SDS011;43657;52.698;6.314;2022-10-14T01:11:43;263.23;;;36.85;;
57828;SDS011;43657;52.698;6.314;2022-10-14T01:14:30;234.25;;;34.72;;
57828;SDS011;43657;52.698;6.314;2022-10-14T01:17:17;264.58;;;36.65;;
57828;SDS011;43657;52.698;6.314;2022-10-14T01:25:50;344.05;;;33.35;;
57828;SDS011;43657;52.698;6.314;2022-10-14T01:28:19;266.17;;;31.55;;
57828;SDS011;43657;52.698;6.314;2022-10-14T01:31:00;231.85;;;28.30;;
57828;SDS011;43657;52.698;6.314;2022-10-14T01:33:36;231.13;;;29.27;;
57828;SDS011;43657;52.698;6.314;2022-10-14T01:36:09;350.70;;;34.80;;
57828;SDS011;43657;52.698;6.314;2022-10-14T01:41:17;410.73;;;37.05;;
57828;SDS011;43657;52.698;6.314;2022-10-14T01:43:47;327.73;;;34.83;;
57828;SDS011;43657;52.698;6.314;2022-10-14T01:46:16;306.15;;;33.58;;
57828;SDS011;43657;52.698;6.314;2022-10-14T01:48:44;346.83;;;39.45;;
57828;SDS011;43657;52.698;6.314;2022-10-14T01:51:14;227.60;;;30.58;;
57828;SDS011;43657;52.698;6.314;2022-10-14T01:53:48;272.45;;;34.70;;
57828;SDS011;43657;52.698;6.314;2022-10-14T01:56:18;360.55;;;36.67;;
57828;SDS011;43657;52.698;6.314;2022-10-14T01:58:45;310.55;;;37.30;;
57828;SDS011;43657;52.698;6.314;2022-10-14T02:01:11;225.02;;;34.40;;
57828;SDS011;43657;52.698;6.314;2022-10-14T02:03:43;340.38;;;36.63;;
57828;SDS011;43657;52.698;6.314;2022-10-14T02:06:32;414.95;;;43.35;;
57828;SDS011;43657;52.698;6.314;2022-10-14T02:17:51;371.33;;;41.45;;
57828;SDS011;43657;52.698;6.314;2022-10-14T02:20:24;325.58;;;37.15;;
57828;SDS011;43657;52.698;6.314;2022-10-14T02:22:58;303.90;;;31.88;;
57828;SDS011;43657;52.698;6.314;2022-10-14T02:25:35;291.60;;;30.70;;
57828;SDS011;43657;52.698;6.314;2022-10-14T02:28:03;249.75;;;26.20;;
57828;SDS011;43657;52.698;6.314;2022-10-14T02:30:33;230.00;;;27.55;;
57828;SDS011;43657;52.698;6.314;2022-10-14T02:33:01;335.85;;;30.55;;
57828;SDS011;43657;52.698;6.314;2022-10-14T02:35:29;271.35;;;30.38;;
57828;SDS011;43657;52.698;6.314;2022-10-14T02:37:55;246.13;;;28.35;;
57828;SDS011;43657;52.698;6.314;2022-10-14T02:40:27;239.73;;;30.08;;
57828;SDS011;43657;52.698;6.314;2022-10-14T02:45:34;268.42;;;31.27;;
57828;SDS011;43657;52.698;6.314;2022-10-14T02:48:01;316.63;;;34.28;;
57828;SDS011;43657;52.698;6.314;2022-10-14T02:50:26;218.43;;;28.70;;
57828;SDS011;43657;52.698;6.314;2022-10-14T02:52:52;330.67;;;34.72;;
57828;SDS011;43657;52.698;6.314;2022-10-14T02:55:17;284.95;;;31.60;;
57828;SDS011;43657;52.698;6.314;2022-10-14T02:57:43;319.13;;;33.30;;
57828;SDS011;43657;52.698;6.314;2022-10-14T03:00:09;195.95;;;28.52;;
57828;SDS011;43657;52.698;6.314;2022-10-14T03:02:35;244.25;;;27.77;;
57828;SDS011;43657;52.698;6.314;2022-10-14T03:05:00;219.90;;;27.35;;
57828;SDS011;43657;52.698;6.314;2022-10-14T03:07:26;213.98;;;26.92;;
57828;SDS011;43657;52.698;6.314;2022-10-14T03:09:52;221.43;;;24.88;;
57828;SDS011;43657;52.698;6.314;2022-10-14T03:12:17;256.35;;;26.15;;
57828;SDS011;43657;52.698;6.314;2022-10-14T03:14:43;257.45;;;26.30;;
57828;SDS011;43657;52.698;6.314;2022-10-14T03:17:09;187.77;;;21.40;;
57828;SDS011;43657;52.698;6.314;2022-10-14T03:19:35;179.02;;;21.88;;
57828;SDS011;43657;52.698;6.314;2022-10-14T03:22:01;125.18;;;20.17;;
57828;SDS011;43657;52.698;6.314;2022-10-14T03:24:26;134.05;;;18.67;;
57828;SDS011;43657;52.698;6.314;2022-10-14T03:26:52;151.20;;;20.45;;
57828;SDS011;43657;52.698;6.314;2022-10-14T03:29:17;157.00;;;21.35;;
57828;SDS011;43657;52.698;6.314;2022-10-14T03:31:43;158.00;;;21.55;;
57828;SDS011;43657;52.698;6.314;2022-10-14T03:34:09;171.73;;;21.25;;
57828;SDS011;43657;52.698;6.314;2022-10-14T03:36:34;157.35;;;21.02;;
57828;SDS011;43657;52.698;6.314;2022-10-14T03:39:00;102.53;;;17.15;;
57828;SDS011;43657;52.698;6.314;2022-10-14T03:41:25;153.95;;;20.88;;
57828;SDS011;43657;52.698;6.314;2022-10-14T03:43:51;182.30;;;22.65;;
57828;SDS011;43657;52.698;6.314;2022-10-14T03:46:17;121.85;;;20.48;;
57828;SDS011;43657;52.698;6.314;2022-10-14T03:48:42;172.32;;;23.40;;
57828;SDS011;43657;52.698;6.314;2022-10-14T03:51:08;148.35;;;21.73;;
57828;SDS011;43657;52.698;6.314;2022-10-14T03:53:33;208.02;;;25.38;;
57828;SDS011;43657;52.698;6.314;2022-10-14T03:55:59;189.07;;;24.25;;
57828;SDS011;43657;52.698;6.314;2022-10-14T03:58:25;178.35;;;24.17;;
57828;SDS011;43657;52.698;6.314;2022-10-14T04:00:50;238.48;;;26.70;;
57828;SDS011;43657;52.698;6.314;2022-10-14T04:03:16;179.95;;;23.73;;
57828;SDS011;43657;52.698;6.314;2022-10-14T04:05:41;154.63;;;24.02;;
57828;SDS011;43657;52.698;6.314;2022-10-14T04:08:07;145.57;;;22.65;;
57828;SDS011;43657;52.698;6.314;2022-10-14T04:10:33;172.05;;;25.58;;
57828;SDS011;43657;52.698;6.314;2022-10-14T04:12:59;151.25;;;24.77;;
57828;SDS011;43657;52.698;6.314;2022-10-14T04:15:24;195.20;;;27.25;;
57828;SDS011;43657;52.698;6.314;2022-10-14T04:17:50;246.25;;;31.35;;
57828;SDS011;43657;52.698;6.314;2022-10-14T04:20:16;195.80;;;27.20;;
57828;SDS011;43657;52.698;6.314;2022-10-14T04:22:41;200.52;;;27.02;;
57828;SDS011;43657;52.698;6.314;2022-10-14T04:25:07;171.50;;;25.48;;
57828;SDS011;43657;52.698;6.314;2022-10-14T04:27:33;133.95;;;25.05;;
57828;SDS011;43657;52.698;6.314;2022-10-14T04:29:59;173.85;;;26.58;;
57828;SDS011;43657;52.698;6.314;2022-10-14T04:32:24;167.70;;;27.77;;
57828;SDS011;43657;52.698;6.314;2022-10-14T04:34:50;162.50;;;25.88;;
57828;SDS011;43657;52.698;6.314;2022-10-14T04:37:16;154.05;;;26.38;;
57828;SDS011;43657;52.698;6.314;2022-10-14T04:39:42;157.57;;;27.00;;
57828;SDS011;43657;52.698;6.314;2022-10-14T04:42:07;189.70;;;28.55;;
57828;SDS011;43657;52.698;6.314;2022-10-14T04:44:33;286.15;;;33.33;;
57828;SDS011;43657;52.698;6.314;2022-10-14T04:46:59;157.15;;;26.17;;
57828;SDS011;43657;52.698;6.314;2022-10-14T04:49:24;193.70;;;27.80;;
57828;SDS011;43657;52.698;6.314;2022-10-14T04:51:50;209.23;;;30.83;;
57828;SDS011;43657;52.698;6.314;2022-10-14T04:54:16;204.60;;;30.98;;
57828;SDS011;43657;52.698;6.314;2022-10-14T04:56:41;205.77;;;30.10;;
57828;SDS011;43657;52.698;6.314;2022-10-14T04:59:07;234.82;;;30.58;;
57828;SDS011;43657;52.698;6.314;2022-10-14T05:01:32;267.65;;;32.40;;
57828;SDS011;43657;52.698;6.314;2022-10-14T05:03:58;272.13;;;32.72;;
57828;SDS011;43657;52.698;6.314;2022-10-14T05:06:24;237.25;;;31.23;;
57828;SDS011;43657;52.698;6.314;2022-10-14T05:08:49;269.75;;;34.58;;
57828;SDS011;43657;52.698;6.314;2022-10-14T05:11:15;211.88;;;28.92;;
57828;SDS011;43657;52.698;6.314;2022-10-14T05:13:41;310.38;;;34.15;;
57828;SDS011;43657;52.698;6.314;2022-10-14T05:16:06;275.45;;;31.98;;
57828;SDS011;43657;52.698;6.314;2022-10-14T05:18:32;291.80;;;31.95;;
57828;SDS011;43657;52.698;6.314;2022-10-14T05:20:58;312.00;;;36.40;;
57828;SDS011;43657;52.698;6.314;2022-10-14T05:23:24;325.30;;;34.83;;
57828;SDS011;43657;52.698;6.314;2022-10-14T05:25:51;210.55;;;29.10;;
57828;SDS011;43657;52.698;6.314;2022-10-14T05:28:16;304.77;;;33.70;;
57828;SDS011;43657;52.698;6.314;2022-10-14T05:30:43;246.63;;;31.00;;
57828;SDS011;43657;52.698;6.314;2022-10-14T05:33:09;284.70;;;33.47;;
57828;SDS011;43657;52.698;6.314;2022-10-14T05:35:35;287.52;;;32.35;;
57828;SDS011;43657;52.698;6.314;2022-10-14T05:38:01;282.65;;;33.40;;
57828;SDS011;43657;52.698;6.314;2022-10-14T05:40:27;296.52;;;33.13;;
57828;SDS011;43657;52.698;6.314;2022-10-14T05:42:53;280.25;;;32.17;;
57828;SDS011;43657;52.698;6.314;2022-10-14T05:45:18;268.20;;;33.13;;
57828;SDS011;43657;52.698;6.314;2022-10-14T05:47:44;285.95;;;34.03;;
57828;SDS011;43657;52.698;6.314;2022-10-14T05:50:10;272.05;;;32.92;;
57828;SDS011;43657;52.698;6.314;2022-10-14T05:52:37;294.83;;;34.10;;
57828;SDS011;43657;52.698;6.314;2022-10-14T05:55:04;301.35;;;33.63;;
57828;SDS011;43657;52.698;6.314;2022-10-14T05:57:30;317.65;;;34.53;;
57828;SDS011;43657;52.698;6.314;2022-10-14T05:59:57;246.43;;;34.65;;
57828;SDS011;43657;52.698;6.314;2022-10-14T06:02:24;305.23;;;34.67;;
57828;SDS011;43657;52.698;6.314;2022-10-14T06:04:49;272.05;;;33.58;;
57828;SDS011;43657;52.698;6.314;2022-10-14T06:07:15;244.65;;;31.45;;
57828;SDS011;43657;52.698;6.314;2022-10-14T06:09:40;280.95;;;32.63;;
57828;SDS011;43657;52.698;6.314;2022-10-14T06:12:06;326.00;;;36.08;;
57828;SDS011;43657;52.698;6.314;2022-10-14T06:14:32;265.63;;;33.65;;
57828;SDS011;43657;52.698;6.314;2022-10-14T06:16:58;295.45;;;33.88;;
57828;SDS011;43657;52.698;6.314;2022-10-14T06:19:24;268.38;;;33.47;;
57828;SDS011;43657;52.698;6.314;2022-10-14T06:21:49;242.02;;;31.40;;
57828;SDS011;43657;52.698;6.314;2022-10-14T06:24:15;259.23;;;34.83;;
57828;SDS011;43657;52.698;6.314;2022-10-14T06:26:40;300.98;;;35.53;;
57828;SDS011;43657;52.698;6.314;2022-10-14T06:29:06;219.13;;;33.25;;
57828;SDS011;43657;52.698;6.314;2022-10-14T06:31:31;209.27;;;30.92;;
57828;SDS011;43657;52.698;6.314;2022-10-14T06:33:57;179.07;;;29.27;;
57828;SDS011;43657;52.698;6.314;2022-10-14T06:36:23;233.15;;;32.33;;
57828;SDS011;43657;52.698;6.314;2022-10-14T06:38:48;211.70;;;30.02;;
57828;SDS011;43657;52.698;6.314;2022-10-14T06:41:14;206.40;;;32.20;;
57828;SDS011;43657;52.698;6.314;2022-10-14T06:43:40;160.45;;;28.63;;
57828;SDS011;43657;52.698;6.314;2022-10-14T06:46:05;143.55;;;26.77;;
57828;SDS011;43657;52.698;6.314;2022-10-14T06:48:31;183.70;;;30.15;;
57828;SDS011;43657;52.698;6.314;2022-10-14T06:50:58;145.40;;;29.48;;
57828;SDS011;43657;52.698;6.314;2022-10-14T06:53:24;131.30;;;27.13;;
57828;SDS011;43657;52.698;6.314;2022-10-14T06:55:56;165.07;;;30.40;;
57828;SDS011;43657;52.698;6.314;2022-10-14T06:58:22;136.65;;;28.67;;
57828;SDS011;43657;52.698;6.314;2022-10-14T07:00:48;138.88;;;26.67;;
57828;SDS011;43657;52.698;6.314;2022-10-14T07:03:14;178.30;;;29.80;;
57828;SDS011;43657;52.698;6.314;2022-10-14T07:05:39;110.03;;;29.90;;
57828;SDS011;43657;52.698;6.314;2022-10-14T07:08:05;149.95;;;29.42;;
57828;SDS011;43657;52.698;6.314;2022-10-14T07:10:30;121.80;;;27.95;;
57828;SDS011;43657;52.698;6.314;2022-10-14T07:12:56;119.63;;;28.17;;
57828;SDS011;43657;52.698;6.314;2022-10-14T07:15:21;164.85;;;28.35;;
57828;SDS011;43657;52.698;6.314;2022-10-14T07:17:47;150.80;;;31.58;;
57828;SDS011;43657;52.698;6.314;2022-10-14T07:20:13;142.68;;;30.40;;
57828;SDS011;43657;52.698;6.314;2022-10-14T07:22:38;163.80;;;31.25;;
57828;SDS011;43657;52.698;6.314;2022-10-14T07:25:05;127.53;;;28.00;;
57828;SDS011;43657;52.698;6.314;2022-10-14T07:27:31;153.80;;;30.00;;
57828;SDS011;43657;52.698;6.314;2022-10-14T07:29:56;131.13;;;30.35;;
57828;SDS011;43657;52.698;6.314;2022-10-14T07:32:22;180.10;;;33.17;;
57828;SDS011;43657;52.698;6.314;2022-10-14T07:34:48;181.50;;;31.98;;
57828;SDS011;43657;52.698;6.314;2022-10-14T07:37:15;137.55;;;30.60;;
57828;SDS011;43657;52.698;6.314;2022-10-14T07:39:40;164.38;;;31.67;;
57828;SDS011;43657;52.698;6.314;2022-10-14T07:42:06;220.30;;;35.42;;
57828;SDS011;43657;52.698;6.314;2022-10-14T07:44:31;177.80;;;32.55;;
57828;SDS011;43657;52.698;6.314;2022-10-14T07:46:57;167.10;;;32.90;;
57828;SDS011;43657;52.698;6.314;2022-10-14T07:49:24;165.50;;;31.73;;
57828;SDS011;43657;52.698;6.314;2022-10-14T07:51:50;188.32;;;35.83;;
57828;SDS011;43657;52.698;6.314;2022-10-14T07:54:20;147.18;;;33.83;;
57828;SDS011;43657;52.698;6.314;2022-10-14T07:56:47;158.57;;;34.03;;
57828;SDS011;43657;52.698;6.314;2022-10-14T07:59:13;143.20;;;32.85;;
57828;SDS011;43657;52.698;6.314;2022-10-14T08:01:40;195.25;;;34.13;;
57828;SDS011;43657;52.698;6.314;2022-10-14T08:04:07;151.75;;;34.33;;
57828;SDS011;43657;52.698;6.314;2022-10-14T08:06:34;187.95;;;34.53;;
57828;SDS011;43657;52.698;6.314;2022-10-14T08:08:59;155.55;;;36.25;;
57828;SDS011;43657;52.698;6.314;2022-10-14T08:11:27;181.13;;;35.83;;
57828;SDS011;43657;52.698;6.314;2022-10-14T08:13:53;227.52;;;36.15;;
57828;SDS011;43657;52.698;6.314;2022-10-14T08:16:21;143.57;;;33.08;;
57828;SDS011;43657;52.698;6.314;2022-10-14T08:18:51;191.20;;;36.22;;
57828;SDS011;43657;52.698;6.314;2022-10-14T08:21:19;180.43;;;36.58;;
57828;SDS011;43657;52.698;6.314;2022-10-14T08:23:45;209.90;;;35.30;;
57828;SDS011;43657;52.698;6.314;2022-10-14T08:26:18;234.73;;;37.60;;
57828;SDS011;43657;52.698;6.314;2022-10-14T08:28:46;134.95;;;36.80;;
57828;SDS011;43657;52.698;6.314;2022-10-14T08:31:13;227.23;;;36.08;;
57828;SDS011;43657;52.698;6.314;2022-10-14T08:33:39;178.18;;;36.33;;
57828;SDS011;43657;52.698;6.314;2022-10-14T08:36:05;222.57;;;38.72;;
57828;SDS011;43657;52.698;6.314;2022-10-14T08:38:31;212.30;;;36.45;;
57828;SDS011;43657;52.698;6.314;2022-10-14T08:41:00;208.98;;;36.45;;
57828;SDS011;43657;52.698;6.314;2022-10-14T08:46:20;198.52;;;35.25;;
57828;SDS011;43657;52.698;6.314;2022-10-14T08:48:51;163.43;;;37.05;;
57828;SDS011;43657;52.698;6.314;2022-10-14T08:51:26;261.70;;;38.78;;
57828;SDS011;43657;52.698;6.314;2022-10-14T08:53:54;229.40;;;37.22;;
57828;SDS011;43657;52.698;6.314;2022-10-14T08:56:30;195.82;;;36.92;;
57828;SDS011;43657;52.698;6.314;2022-10-14T08:58:59;202.90;;;35.33;;
57828;SDS011;43657;52.698;6.314;2022-10-14T09:01:31;201.77;;;37.80;;
57828;SDS011;43657;52.698;6.314;2022-10-14T09:03:59;185.43;;;34.78;;
57828;SDS011;43657;52.698;6.314;2022-10-14T09:06:29;255.93;;;36.20;;
57828;SDS011;43657;52.698;6.314;2022-10-14T09:08:58;201.48;;;36.45;;
57828;SDS011;43657;52.698;6.314;2022-10-14T09:11:36;171.20;;;32.90;;
57828;SDS011;43657;52.698;6.314;2022-10-14T09:14:05;189.88;;;35.45;;
57828;SDS011;43657;52.698;6.314;2022-10-14T09:16:35;298.25;;;38.08;;
57828;SDS011;43657;52.698;6.314;2022-10-14T09:19:03;286.15;;;37.00;;
57828;SDS011;43657;52.698;6.314;2022-10-14T09:21:42;201.32;;;33.97;;
57828;SDS011;43657;52.698;6.314;2022-10-14T09:24:31;185.18;;;31.33;;
57828;SDS011;43657;52.698;6.314;2022-10-14T09:27:07;217.32;;;31.67;;
57828;SDS011;43657;52.698;6.314;2022-10-14T09:29:40;199.35;;;30.40;;
57828;SDS011;43657;52.698;6.314;2022-10-14T09:32:12;138.30;;;29.27;;
57828;SDS011;43657;52.698;6.314;2022-10-14T09:34:45;174.35;;;29.83;;
57828;SDS011;43657;52.698;6.314;2022-10-14T09:37:24;136.13;;;27.55;;
57828;SDS011;43657;52.698;6.314;2022-10-14T09:39:55;126.10;;;27.83;;
57828;SDS011;43657;52.698;6.314;2022-10-14T09:45:06;145.45;;;27.75;;
57828;SDS011;43657;52.698;6.314;2022-10-14T09:47:40;112.20;;;25.90;;
57828;SDS011;43657;52.698;6.314;2022-10-14T09:51:17;92.03;;;24.95;;
57828;SDS011;43657;52.698;6.314;2022-10-14T09:53:37;111.85;;;26.27;;
57828;SDS011;43657;52.698;6.314;2022-10-14T09:56:09;189.70;;;30.00;;
57828;SDS011;43657;52.698;6.314;2022-10-14T09:58:43;154.48;;;28.92;;
57828;SDS011;43657;52.698;6.314;2022-10-14T10:01:21;106.03;;;25.08;;
57828;SDS011;43657;52.698;6.314;2022-10-14T10:03:50;93.00;;;24.75;;
57828;SDS011;43657;52.698;6.314;2022-10-14T10:06:17;189.73;;;28.45;;
57828;SDS011;43657;52.698;6.314;2022-10-14T10:09:03;121.70;;;26.38;;
57828;SDS011;43657;52.698;6.314;2022-10-14T10:14:14;177.18;;;27.23;;
57828;SDS011;43657;52.698;6.314;2022-10-14T10:19:36;209.73;;;30.05;;
57828;SDS011;43657;52.698;6.314;2022-10-14T10:24:47;161.15;;;29.35;;
57828;SDS011;43657;52.698;6.314;2022-10-14T10:27:34;153.20;;;29.38;;
57828;SDS011;43657;52.698;6.314;2022-10-14T10:32:53;160.20;;;34.22;;
57828;SDS011;43657;52.698;6.314;2022-10-14T10:38:31;257.48;;;36.83;;
57828;SDS011;43657;52.698;6.314;2022-10-14T10:46:36;230.13;;;39.03;;
57828;SDS011;43657;52.698;6.314;2022-10-14T11:05:34;234.60;;;36.60;;
57828;SDS011;43657;52.698;6.314;2022-10-14T11:08:37;197.15;;;34.33;;
57828;SDS011;43657;52.698;6.314;2022-10-14T11:14:44;116.90;;;29.42;;
57828;SDS011;43657;52.698;6.314;2022-10-14T11:28:00;129.38;;;27.45;;
57828;SDS011;43657;52.698;6.314;2022-10-14T11:44:09;81.25;;;22.25;;
57828;SDS011;43657;52.698;6.314;2022-10-14T11:46:45;74.13;;;21.52;;
57828;SDS011;43657;52.698;6.314;2022-10-14T11:49:24;83.65;;;21.45;;
57828;SDS011;43657;52.698;6.314;2022-10-14T11:54:29;58.45;;;18.63;;
57828;SDS011;43657;52.698;6.314;2022-10-14T11:57:21;45.55;;;18.05;;
57828;SDS011;43657;52.698;6.314;2022-10-14T12:00:33;30.42;;;15.85;;
57828;SDS011;43657;52.698;6.314;2022-10-14T12:07:54;36.88;;;15.27;;
57828;SDS011;43657;52.698;6.314;2022-10-14T12:10:28;39.53;;;15.73;;
57828;SDS011;43657;52.698;6.314;2022-10-14T12:13:15;39.08;;;15.00;;
57828;SDS011;43657;52.698;6.314;2022-10-14T12:15:43;31.73;;;13.57;;
57828;SDS011;43657;52.698;6.314;2022-10-14T12:18:13;24.95;;;13.07;;
57828;SDS011;43657;52.698;6.314;2022-10-14T12:23:10;25.15;;;13.48;;
57828;SDS011;43657;52.698;6.314;2022-10-14T12:25:48;24.73;;;12.27;;
57828;SDS011;43657;52.698;6.314;2022-10-14T12:28:20;64.18;;;14.93;;
57828;SDS011;43657;52.698;6.314;2022-10-14T12:30:46;25.48;;;13.35;;
57828;SDS011;43657;52.698;6.314;2022-10-14T12:33:12;24.45;;;13.43;;
57828;SDS011;43657;52.698;6.314;2022-10-14T12:35:56;20.80;;;11.70;;
57828;SDS011;43657;52.698;6.314;2022-10-14T12:38:28;18.67;;;12.38;;
57828;SDS011;43657;52.698;6.314;2022-10-14T12:41:30;18.85;;;12.30;;
57828;SDS011;43657;52.698;6.314;2022-10-14T12:44:03;20.40;;;12.80;;
57828;SDS011;43657;52.698;6.314;2022-10-14T12:46:42;21.13;;;12.77;;
57828;SDS011;43657;52.698;6.314;2022-10-14T12:49:15;19.73;;;12.57;;
57828;SDS011;43657;52.698;6.314;2022-10-14T12:51:59;25.20;;;13.93;;
57828;SDS011;43657;52.698;6.314;2022-10-14T12:54:28;29.60;;;13.90;;
57828;SDS011;43657;52.698;6.314;2022-10-14T12:59:57;16.95;;;12.73;;
57828;SDS011;43657;52.698;6.314;2022-10-14T13:02:29;47.03;;;16.25;;
57828;SDS011;43657;52.698;6.314;2022-10-14T13:04:56;26.80;;;14.75;;
57828;SDS011;43657;52.698;6.314;2022-10-14T13:07:43;32.53;;;15.35;;
57828;SDS011;43657;52.698;6.314;2022-10-14T13:12:51;18.63;;;14.50;;
57828;SDS011;43657;52.698;6.314;2022-10-14T13:15:31;29.00;;;15.75;;
57828;SDS011;43657;52.698;6.314;2022-10-14T13:21:08;24.27;;;15.30;;
57828;SDS011;43657;52.698;6.314;2022-10-14T13:23:45;33.67;;;16.48;;
57828;SDS011;43657;52.698;6.314;2022-10-14T13:35:11;50.63;;;18.73;;
57828;SDS011;43657;52.698;6.314;2022-10-14T13:38:02;49.90;;;18.63;;
57828;SDS011;43657;52.698;6.314;2022-10-14T13:40:31;34.78;;;18.35;;
57828;SDS011;43657;52.698;6.314;2022-10-14T13:43:07;33.90;;;17.60;;
57828;SDS011;43657;52.698;6.314;2022-10-14T13:45:43;29.60;;;15.95;;
57828;SDS011;43657;52.698;6.314;2022-10-14T13:48:13;30.52;;;15.98;;
57828;SDS011;43657;52.698;6.314;2022-10-14T13:50:41;47.67;;;17.95;;
57828;SDS011;43657;52.698;6.314;2022-10-14T13:53:14;36.20;;;16.02;;
57828;SDS011;43657;52.698;6.314;2022-10-14T13:55:43;58.10;;;18.00;;
57828;SDS011;43657;52.698;6.314;2022-10-14T13:58:12;23.85;;;14.60;;
57828;SDS011;43657;52.698;6.314;2022-10-14T14:00:38;25.38;;;14.82;;
57828;SDS011;43657;52.698;6.314;2022-10-14T14:03:13;89.70;;;18.92;;
57828;SDS011;43657;52.698;6.314;2022-10-14T14:05:50;24.48;;;15.20;;
57828;SDS011;43657;52.698;6.314;2022-10-14T14:08:23;28.25;;;16.67;;
57828;SDS011;43657;52.698;6.314;2022-10-14T14:10:55;62.25;;;17.73;;
57828;SDS011;43657;52.698;6.314;2022-10-14T14:13:25;38.88;;;16.33;;
57828;SDS011;43657;52.698;6.314;2022-10-14T14:15:52;23.75;;;14.32;;
57828;SDS011;43657;52.698;6.314;2022-10-14T14:18:32;27.45;;;14.15;;
57828;SDS011;43657;52.698;6.314;2022-10-14T14:21:00;26.20;;;14.13;;
57828;SDS011;43657;52.698;6.314;2022-10-14T14:23:27;23.17;;;13.30;;
57828;SDS011;43657;52.698;6.314;2022-10-14T14:25:54;18.10;;;12.93;;
57828;SDS011;43657;52.698;6.314;2022-10-14T14:28:21;34.88;;;14.50;;
57828;SDS011;43657;52.698;6.314;2022-10-14T14:30:48;41.78;;;16.15;;
57828;SDS011;43657;52.698;6.314;2022-10-14T14:33:21;30.02;;;14.65;;
57828;SDS011;43657;52.698;6.314;2022-10-14T14:35:58;36.70;;;14.52;;
57828;SDS011;43657;52.698;6.314;2022-10-14T14:41:04;34.05;;;14.88;;
57828;SDS011;43657;52.698;6.314;2022-10-14T14:43:46;50.28;;;16.38;;
57828;SDS011;43657;52.698;6.314;2022-10-14T14:46:24;20.27;;;13.02;;
57828;SDS011;43657;52.698;6.314;2022-10-14T14:48:58;35.97;;;14.45;;
57828;SDS011;43657;52.698;6.314;2022-10-14T14:51:27;32.88;;;14.00;;
57828;SDS011;43657;52.698;6.314;2022-10-14T14:54:00;27.02;;;14.18;;
57828;SDS011;43657;52.698;6.314;2022-10-14T14:56:32;41.72;;;14.68;;
57828;SDS011;43657;52.698;6.314;2022-10-14T14:59:09;29.20;;;13.85;;
57828;SDS011;43657;52.698;6.314;2022-10-14T15:01:42;33.92;;;14.23;;
57828;SDS011;43657;52.698;6.314;2022-10-14T15:04:15;23.88;;;13.18;;
57828;SDS011;43657;52.698;6.314;2022-10-14T15:06:49;43.00;;;14.38;;
57828;SDS011;43657;52.698;6.314;2022-10-14T15:09:19;21.10;;;13.05;;
57828;SDS011;43657;52.698;6.314;2022-10-14T15:12:02;31.65;;;13.80;;
57828;SDS011;43657;52.698;6.314;2022-10-14T15:14:48;31.75;;;13.93;;
57828;SDS011;43657;52.698;6.314;2022-10-14T15:17:29;56.45;;;14.73;;
57828;SDS011;43657;52.698;6.314;2022-10-14T15:19:59;37.17;;;13.27;;
57828;SDS011;43657;52.698;6.314;2022-10-14T15:22:44;21.98;;;12.68;;
57828;SDS011;43657;52.698;6.314;2022-10-14T15:27:48;23.60;;;13.85;;
57828;SDS011;43657;52.698;6.314;2022-10-14T15:33:09;69.85;;;15.15;;
57828;SDS011;43657;52.698;6.314;2022-10-14T15:35:39;36.50;;;13.02;;
57828;SDS011;43657;52.698;6.314;2022-10-14T15:38:09;29.75;;;12.23;;
57828;SDS011;43657;52.698;6.314;2022-10-14T15:40:39;44.95;;;13.05;;
57828;SDS011;43657;52.698;6.314;2022-10-14T15:43:10;24.15;;;10.95;;
57828;SDS011;43657;52.698;6.314;2022-10-14T15:45:41;21.10;;;10.95;;
57828;SDS011;43657;52.698;6.314;2022-10-14T15:48:11;45.33;;;12.73;;
57828;SDS011;43657;52.698;6.314;2022-10-14T15:50:43;23.95;;;11.35;;
57828;SDS011;43657;52.698;6.314;2022-10-14T15:53:10;36.45;;;12.52;;
57828;SDS011;43657;52.698;6.314;2022-10-14T15:55:37;31.17;;;12.52;;
57828;SDS011;43657;52.698;6.314;2022-10-14T15:58:02;38.42;;;12.75;;
57828;SDS011;43657;52.698;6.314;2022-10-14T16:00:28;16.42;;;10.65;;
57828;SDS011;43657;52.698;6.314;2022-10-14T16:02:55;50.60;;;13.52;;
57828;SDS011;43657;52.698;6.314;2022-10-14T16:05:23;38.15;;;12.25;;
57828;SDS011;43657;52.698;6.314;2022-10-14T16:07:55;36.97;;;11.65;;
57828;SDS011;43657;52.698;6.314;2022-10-14T16:10:22;43.67;;;11.48;;
57828;SDS011;43657;52.698;6.314;2022-10-14T16:12:48;45.53;;;11.15;;
57828;SDS011;43657;52.698;6.314;2022-10-14T16:18:01;29.48;;;9.23;;
57828;SDS011;43657;52.698;6.314;2022-10-14T16:20:27;28.48;;;8.75;;
57828;SDS011;43657;52.698;6.314;2022-10-14T16:22:54;49.20;;;10.85;;
57828;SDS011;43657;52.698;6.314;2022-10-14T16:25:34;54.42;;;11.45;;
57828;SDS011;43657;52.698;6.314;2022-10-14T16:28:07;27.38;;;9.80;;
57828;SDS011;43657;52.698;6.314;2022-10-14T16:30:33;23.95;;;10.05;;
57828;SDS011;43657;52.698;6.314;2022-10-14T16:33:00;35.78;;;10.18;;
57828;SDS011;43657;52.698;6.314;2022-10-14T16:35:26;17.60;;;8.93;;
57828;SDS011;43657;52.698;6.314;2022-10-14T16:37:52;13.25;;;8.52;;
57828;SDS011;43657;52.698;6.314;2022-10-14T16:40:18;28.63;;;11.02;;